Tropical Cyclones
[Index]
Main Index Home Page Stock Weather Photos Extreme Storms Discussion Storm News and Storm Chasing Reports Tropical Cyclones / Hurricanes / Typhoons Weather Data and Links Wild Fires / Bushfires Weather Observation Techniques Weather Picture Catalogue Tornado Pictures and Reports Stock Video Footage and DVDs for sale
Season 2010-2011 Tropical Cyclone VINCE Track Map
Season 2010-2011 Summaries: [BoM-AU] [JTWC-AU] [JTWC-SIO] [JTWC-SPAC] [JTWC-SH]
<<- Previous TC | BoM 2010-2011 Season | Next TC ->>

click for intensity scale information  Lat/long Grid: Show Hide

 Date Labels: Show Hide

Bureau of Meteorology Tropical Cyclone Data

Name: VINCE
Number: 943 / 201011_09

09 Jan 2011 06:00 UTC to 16 Jan 2011 12:00 UTC

    date/time    lat    long    hPa   cat  kts
2011-01-09 06   15.1   112.8    996         25          
2011-01-09 12   15.2   112.9    996         25          
2011-01-09 18   15.2   113.0    996         25          
2011-01-09 18   15.2   113.0                            
2011-01-09 22   15.2   112.5                            
2011-01-10 00   15.2   112.3    996         25          
2011-01-10 06   15.2   111.7    995    1    25          
2011-01-10 06   15.2   111.6                            
2011-01-10 11   15.1   110.9                            
2011-01-10 12   15.1   110.7    995    1    25          
2011-01-10 18   15.2   109.5    994    1    30          
2011-01-10 22   15.2   108.7                            
2011-01-10 23   15.0   108.6                            
2011-01-11 00   15.0   108.6    993    1    30          
2011-01-11 06   15.0   108.1    990    1    30          
2011-01-11 08   15.0   107.9                            
2011-01-11 10   15.0   107.8                            
2011-01-11 12   14.9   107.7    990    1    30          
2011-01-11 12   14.9   107.7                            
2011-01-11 13   14.8   107.6                            
2011-01-11 18   15.0   107.0    990    1    35          
2011-01-11 18   15.0   107.0                            
2011-01-11 23   15.0   107.3                            
2011-01-12 00   15.0   107.3    990    1    35          
2011-01-12 06   15.0   107.5    990    1    35          
2011-01-12 06   15.0   107.5                            
2011-01-12 10   15.3   108.0                            
2011-01-12 12   15.4   108.0    990    1    35          
2011-01-12 13   15.5   108.0                            
2011-01-12 17   15.8   107.8                            
2011-01-12 18   15.8   107.8    990    1    35          
2011-01-12 21   15.8   108.0                            
2011-01-12 23   15.8   108.0                            
2011-01-13 00   15.8   108.0    986    1    40          
2011-01-13 00   15.8   108.0                            
2011-01-13 06   15.9   109.2    993    1    35          
2011-01-13 10   15.9   110.1                            
2011-01-13 12   15.8   110.4    994    1    30          
2011-01-13 13   15.8   110.5                            
2011-01-13 16   16.0   111.2                            
2011-01-13 18   16.1   111.6    996         30          
2011-01-13 18   16.1   111.6                            
2011-01-13 22   16.3   112.3                            
2011-01-14 00   16.3   112.5    997         30          
2011-01-14 00   16.3   112.5                            
2011-01-14 06   16.3   113.5    997         30          
2011-01-14 06   16.3   113.6                            
2011-01-14 07   16.3   113.9                            
2011-01-14 10   16.2   114.3                            
2011-01-14 12   16.1   114.4    997         30          
2011-01-14 15   15.9   114.7                            
2011-01-14 18   15.8   114.7    997         30          
2011-01-14 22   15.7   114.8                            
2011-01-15 00   15.6   114.5    997         30          
2011-01-15 00   15.6   114.5                            
2011-01-15 05   15.6   114.2                            
2011-01-15 06   15.6   114.2    997         30          
2011-01-15 12   15.9   114.1    997         30          
2011-01-15 14   16.0   114.0                            
2011-01-15 17   15.7   113.4                            
2011-01-15 18   15.7   113.4    997         30          
2011-01-15 22   16.0   113.4                            
2011-01-16 00   16.0   113.2    997         25          
2011-01-16 06   16.2   112.5    997         25          
2011-01-16 06   16.2   112.5                            
2011-01-16 10   16.0   112.3                            
2011-01-16 12   15.9   112.2    997         20          
2011-01-16 12   15.8   112.2                            
Winds are 10-min average.

Tropical cyclone tracks developed by Michael Bath using data from the Bureau of Meteorology and Google Maps.


[Australian Severe Weather index] [Copyright Notice] [Email Contacts] [Search This Site] [Privacy Policy]
Document: tropical_cyclone_vince.htm Updated: 29 June 2017